createdAt,value
2023-05-16T00:01:48.789Z,98293.56
2023-05-16T00:04:16.226Z,98294.63
2023-05-16T00:06:43.418Z,98294.28
2023-05-16T00:09:10.285Z,98294.28
2023-05-16T00:11:37.122Z,98305.69
2023-05-16T00:14:03.799Z,98296.06
2023-05-16T00:16:30.703Z,98300.22
2023-05-16T00:19:00.938Z,98304.66
2023-05-16T00:21:28.272Z,98292.41
2023-05-16T00:23:54.918Z,98294.16
2023-05-16T00:26:21.798Z,98286.19
2023-05-16T00:28:48.767Z,98290.69
2023-05-16T00:31:15.718Z,98288.34
2023-05-16T00:33:42.646Z,98290.03
2023-05-16T00:36:09.614Z,98289.41
2023-05-16T00:38:37.432Z,98284.28
2023-05-16T00:41:04.447Z,98280.53
2023-05-16T00:43:31.498Z,98281.81
2023-05-16T00:45:58.381Z,98282.13
2023-05-16T00:48:25.372Z,98278.72
2023-05-16T00:50:53.231Z,98278.94
2023-05-16T00:53:22.147Z,98275.38
2023-05-16T00:55:48.928Z,98279.84
2023-05-16T00:58:16.466Z,98282.84
2023-05-16T01:00:47.217Z,98276.00
2023-05-16T01:03:15.421Z,98283.91
2023-05-16T01:05:42.252Z,98289.16
2023-05-16T01:08:08.885Z,98284.06
2023-05-16T01:10:48.578Z,98286.56
2023-05-16T01:13:27.260Z,98279.56
2023-05-16T01:16:04.723Z,98283.19
2023-05-16T01:18:38.586Z,98275.09
2023-05-16T01:21:13.496Z,98280.19
2023-05-16T01:24:00.432Z,98285.38
2023-05-16T01:26:28.370Z,98279.25
2023-05-16T01:28:55.429Z,98274.78
2023-05-16T01:31:23.910Z,98279.94
2023-05-16T01:33:51.827Z,98281.91
2023-05-16T01:36:43.273Z,98283.81
2023-05-16T01:39:27.081Z,98285.72
2023-05-16T01:42:01.084Z,98276.41
2023-05-16T01:44:40.327Z,98275.63
2023-05-16T01:47:12.053Z,98282.25
2023-05-16T01:49:44.737Z,98287.41
2023-05-16T01:52:21.629Z,98272.41
2023-05-16T01:54:52.890Z,98276.69
2023-05-16T01:57:25.419Z,98275.06
2023-05-16T01:59:52.686Z,98267.94
2023-05-16T02:02:20.022Z,98272.25
2023-05-16T02:04:46.854Z,98275.97
2023-05-16T02:07:15.788Z,98274.16
2023-05-16T02:09:45.088Z,98276.63
2023-05-16T02:12:11.740Z,98284.38
2023-05-16T02:14:38.514Z,98292.13
2023-05-16T02:17:06.694Z,98282.50
2023-05-16T02:19:33.364Z,98288.50
2023-05-16T02:22:00.657Z,98303.66
2023-05-16T02:24:27.379Z,98288.72
2023-05-16T02:26:55.754Z,98299.38
2023-05-16T02:29:22.384Z,98297.34
2023-05-16T02:31:49.310Z,98297.34
2023-05-16T02:34:16.518Z,98295.00
2023-05-16T02:36:43.261Z,98300.25
2023-05-16T02:39:10.340Z,98283.50
2023-05-16T02:41:37.308Z,98295.28
2023-05-16T02:44:04.258Z,98296.47
2023-05-16T02:46:33.505Z,98296.69
2023-05-16T02:49:00.585Z,98292.53
2023-05-16T02:51:28.365Z,98297.94
2023-05-16T02:53:57.160Z,98294.38
2023-05-16T02:56:23.934Z,98295.22
2023-05-16T02:58:51.295Z,98287.34
2023-05-16T03:01:18.242Z,98295.66
2023-05-16T03:03:45.353Z,98293.50
2023-05-16T03:06:12.616Z,98297.22
2023-05-16T03:08:39.277Z,98307.94
2023-05-16T03:11:06.010Z,98298.22
2023-05-16T03:13:33.066Z,98314.91
2023-05-16T03:16:00.204Z,98304.41
2023-05-16T03:18:26.891Z,98310.34
2023-05-16T03:20:53.736Z,98315.44
2023-05-16T03:23:21.293Z,98315.34
2023-05-16T03:25:48.182Z,98318.66
2023-05-16T03:28:16.572Z,98324.72
2023-05-16T03:30:43.423Z,98321.03
2023-05-16T03:33:10.417Z,98323.44
2023-05-16T03:35:37.985Z,98326.97
2023-05-16T03:38:04.770Z,98324.16
2023-05-16T03:40:31.529Z,98337.59
2023-05-16T03:42:58.140Z,98321.50
2023-05-16T03:45:25.072Z,98332.94
2023-05-16T03:47:52.194Z,98331.09
2023-05-16T03:50:18.984Z,98334.88
2023-05-16T03:52:45.815Z,98334.66
2023-05-16T03:55:14.539Z,98332.00
2023-05-16T03:57:44.741Z,98333.63
2023-05-16T04:00:12.683Z,98342.28
2023-05-16T04:02:40.955Z,98336.16
2023-05-16T04:05:09.231Z,98339.91
2023-05-16T04:07:37.070Z,98342.63
2023-05-16T04:10:05.024Z,98345.03
2023-05-16T04:12:32.021Z,98350.16
2023-05-16T04:14:58.872Z,98348.31
2023-05-16T04:17:25.654Z,98349.13
2023-05-16T04:19:52.302Z,98351.72
2023-05-16T04:22:21.881Z,98356.19
2023-05-16T04:24:49.042Z,98350.06
2023-05-16T04:27:15.845Z,98355.50
2023-05-16T04:29:42.666Z,98357.19
2023-05-16T04:32:09.617Z,98365.25
2023-05-16T04:34:39.742Z,98364.34
2023-05-16T04:37:07.669Z,98371.47
2023-05-16T04:39:35.371Z,98367.84
2023-05-16T04:42:04.361Z,98368.91
2023-05-16T04:44:31.657Z,98365.44
2023-05-16T04:46:58.502Z,98373.53
2023-05-16T04:49:25.505Z,98372.53
2023-05-16T04:51:52.165Z,98372.56
2023-05-16T04:54:18.811Z,98375.31
2023-05-16T04:56:45.463Z,98373.34
2023-05-16T04:59:12.085Z,98376.00
2023-05-16T05:01:39.467Z,98374.97
2023-05-16T05:04:06.522Z,98381.13
2023-05-16T05:06:33.355Z,98383.09
2023-05-16T05:09:00.026Z,98383.72
2023-05-16T05:11:27.310Z,98387.13
2023-05-16T05:13:54.057Z,98388.03
2023-05-16T05:16:20.888Z,98389.19
2023-05-16T05:18:47.819Z,98403.25
2023-05-16T05:21:14.638Z,98394.50
2023-05-16T05:23:41.359Z,98401.59
2023-05-16T05:26:08.102Z,98400.75
2023-05-16T05:28:34.763Z,98406.03
2023-05-16T05:31:01.417Z,98407.59
2023-05-16T05:33:30.893Z,98405.09
2023-05-16T05:35:57.789Z,98409.53
2023-05-16T05:38:24.598Z,98403.22
2023-05-16T05:40:51.365Z,98409.31
2023-05-16T05:43:18.023Z,98413.69
2023-05-16T05:45:44.807Z,98419.94
2023-05-16T05:48:12.832Z,98419.94
2023-05-16T05:50:39.733Z,98423.66
2023-05-16T05:53:06.580Z,98426.34
2023-05-16T05:55:33.304Z,98420.81
2023-05-16T05:57:59.946Z,98420.25
2023-05-16T06:00:26.739Z,98427.78
2023-05-16T06:02:53.650Z,98430.22
2023-05-16T06:05:20.414Z,98425.56
2023-05-16T06:07:47.060Z,98433.31
2023-05-16T06:10:14.047Z,98428.56
2023-05-16T06:12:40.752Z,98432.19
2023-05-16T06:15:08.367Z,98441.91
2023-05-16T06:17:35.121Z,98445.59
2023-05-16T06:20:01.892Z,98448.34
2023-05-16T06:22:29.355Z,98451.31
2023-05-16T06:24:55.977Z,98454.81
2023-05-16T06:27:22.914Z,98456.75
2023-05-16T06:29:49.541Z,98455.66
2023-05-16T06:32:16.169Z,98459.53
2023-05-16T06:34:43.042Z,98461.31
2023-05-16T06:37:09.677Z,98464.88
2023-05-16T06:39:37.089Z,98462.03
2023-05-16T06:42:04.033Z,98468.44
2023-05-16T06:44:32.556Z,98466.81
2023-05-16T06:46:59.290Z,98467.31
2023-05-16T06:49:26.025Z,98467.03
2023-05-16T06:51:52.738Z,98464.56
2023-05-16T06:54:19.454Z,98464.13
2023-05-16T06:56:46.184Z,98474.97
2023-05-16T06:59:13.159Z,98478.75
2023-05-16T07:01:39.899Z,98474.75
2023-05-16T07:04:06.920Z,98476.06
2023-05-16T07:06:33.846Z,98475.13
2023-05-16T07:09:00.608Z,98482.72
2023-05-16T07:11:27.262Z,98485.00
2023-05-16T07:13:54.080Z,98498.78
2023-05-16T07:16:20.954Z,98493.63
2023-05-16T07:18:47.717Z,98485.47
2023-05-16T07:21:14.540Z,98495.28
2023-05-16T07:23:41.619Z,98494.56
2023-05-16T07:26:08.393Z,98495.56
2023-05-16T07:28:35.079Z,98500.22
2023-05-16T07:31:01.735Z,98507.09
2023-05-16T07:33:28.615Z,98508.81
2023-05-16T07:36:07.737Z,98500.84
2023-05-16T07:38:42.308Z,98506.69
2023-05-16T07:41:09.201Z,98507.41
2023-05-16T07:43:36.763Z,98505.56
2023-05-16T07:46:03.658Z,98514.13
2023-05-16T07:48:30.399Z,98513.09
2023-05-16T07:50:57.854Z,98513.31
2023-05-16T07:53:24.640Z,98510.88
2023-05-16T07:55:51.616Z,98514.22
2023-05-16T07:58:18.396Z,98526.19
2023-05-16T08:00:45.432Z,98525.91
2023-05-16T08:03:12.365Z,98529.53
2023-05-16T08:05:39.780Z,98534.66
2023-05-16T08:08:06.520Z,98526.72
2023-05-16T08:10:33.268Z,98539.97
2023-05-16T08:12:59.944Z,98541.25
2023-05-16T08:15:28.431Z,98536.59
2023-05-16T08:17:58.601Z,98546.16
2023-05-16T08:20:26.349Z,98540.41
2023-05-16T08:22:53.386Z,98548.03
2023-05-16T08:25:20.490Z,98554.78
2023-05-16T08:27:49.456Z,98542.97
2023-05-16T08:30:16.230Z,98553.22
2023-05-16T08:32:42.929Z,98553.28
2023-05-16T08:35:11.108Z,98558.19
2023-05-16T08:37:37.928Z,98556.16
2023-05-16T08:40:08.278Z,98562.94
2023-05-16T08:42:35.457Z,98559.75
2023-05-16T08:45:02.639Z,98555.19
2023-05-16T08:47:31.708Z,98555.97
2023-05-16T08:49:59.330Z,98564.16
2023-05-16T08:52:30.577Z,98566.59
2023-05-16T08:55:09.933Z,98554.34
2023-05-16T08:57:38.110Z,98567.13
2023-05-16T09:00:13.294Z,98568.81
2023-05-16T09:02:41.930Z,98582.00
2023-05-16T09:05:11.748Z,98577.25
2023-05-16T09:07:38.655Z,98584.03
2023-05-16T09:10:07.062Z,98589.25
2023-05-16T09:12:34.517Z,98592.41
2023-05-16T09:15:06.050Z,98594.47
2023-05-16T09:17:45.636Z,98596.84
2023-05-16T09:20:14.486Z,98600.81
2023-05-16T09:22:51.877Z,98597.56
2023-05-16T09:25:29.698Z,98601.25
2023-05-16T09:27:59.839Z,98592.72
2023-05-16T09:30:31.990Z,98594.09
2023-05-16T09:32:59.793Z,98588.56
2023-05-16T09:37:56.791Z,98590.38
2023-05-16T09:40:24.114Z,98584.34
2023-05-16T09:43:04.795Z,98589.44
2023-05-16T09:45:32.803Z,98579.66
2023-05-16T09:48:10.703Z,98581.59
2023-05-16T09:50:37.950Z,98580.75
2023-05-16T09:53:05.694Z,98591.16
2023-05-16T09:55:33.406Z,98589.81
2023-05-16T09:58:00.372Z,98589.78
2023-05-16T10:00:32.205Z,98588.38
2023-05-16T10:03:03.258Z,98578.31
2023-05-16T10:05:31.480Z,98580.31
2023-05-16T10:07:58.679Z,98564.34
2023-05-16T10:10:25.644Z,98567.38
2023-05-16T10:12:53.329Z,98556.19
2023-05-16T10:15:20.977Z,98559.25
2023-05-16T10:17:53.028Z,98558.91
2023-05-16T10:20:21.423Z,98558.31
2023-05-16T10:22:51.633Z,98558.84
2023-05-16T10:25:30.267Z,98550.41
2023-05-16T10:27:58.427Z,98548.53
2023-05-16T10:30:25.550Z,98554.56
2023-05-16T10:32:53.348Z,98574.56
2023-05-16T10:35:21.726Z,98578.06
2023-05-16T10:37:50.541Z,98584.44
2023-05-16T10:40:18.450Z,98585.53
2023-05-16T10:42:57.216Z,98574.31
2023-05-16T10:45:24.234Z,98570.56
2023-05-16T10:48:01.490Z,98575.56
2023-05-16T10:50:44.931Z,98578.91
2023-05-16T10:53:34.437Z,98573.91
2023-05-16T10:56:03.881Z,98582.50
2023-05-16T10:58:35.094Z,98582.47
2023-05-16T11:01:29.182Z,98572.84
2023-05-16T11:03:58.953Z,98570.53
2023-05-16T11:06:36.164Z,98560.25
2023-05-16T11:09:11.956Z,98544.94
2023-05-16T11:11:39.287Z,98525.97
2023-05-16T11:14:06.139Z,98512.84
2023-05-16T11:16:34.701Z,98496.06
2023-05-16T11:19:06.567Z,98496.00
2023-05-16T11:22:05.137Z,98506.53
2023-05-16T11:24:32.204Z,98492.72
2023-05-16T11:27:02.848Z,98503.25
2023-05-16T11:29:32.433Z,98515.28
2023-05-16T11:32:00.678Z,98515.78
2023-05-16T11:34:27.757Z,98517.63
2023-05-16T11:36:54.939Z,98521.91
2023-05-16T11:39:24.377Z,98519.88
2023-05-16T11:41:52.144Z,98516.66
2023-05-16T11:44:19.165Z,98518.09
2023-05-16T11:46:46.605Z,98515.84
2023-05-16T11:49:13.640Z,98526.53
2023-05-16T11:51:41.606Z,98523.13
2023-05-16T11:54:10.511Z,98533.44
2023-05-16T11:56:37.466Z,98522.50
2023-05-16T11:59:04.481Z,98496.28
2023-05-16T12:01:38.868Z,98486.63
2023-05-16T12:04:14.079Z,98495.59
2023-05-16T12:06:44.230Z,98486.88
2023-05-16T12:09:18.151Z,98494.75
2023-05-16T12:11:45.310Z,98511.84
2023-05-16T12:14:13.822Z,98507.75
2023-05-16T12:16:43.943Z,98509.91
2023-05-16T12:19:11.518Z,98515.56
2023-05-16T12:21:38.813Z,98526.38
2023-05-16T12:24:09.045Z,98517.81
2023-05-16T12:26:35.939Z,98516.00
2023-05-16T12:29:05.548Z,98532.25
2023-05-16T12:31:37.030Z,98541.56
2023-05-16T12:34:03.827Z,98550.34
2023-05-16T12:36:34.962Z,98550.34
2023-05-16T12:39:03.651Z,98538.03
2023-05-16T12:41:31.414Z,98545.16
2023-05-16T12:44:12.170Z,98539.69
2023-05-16T12:46:43.665Z,98535.41
2023-05-16T12:49:10.426Z,98538.34
2023-05-16T12:51:37.547Z,98556.34
2023-05-16T12:54:11.845Z,98559.03
2023-05-16T12:56:40.617Z,98557.75
2023-05-16T12:59:08.639Z,98566.47
2023-05-16T13:01:36.585Z,98560.34
2023-05-16T13:04:04.676Z,98570.38
2023-05-16T13:06:44.960Z,98560.81
2023-05-16T13:09:19.227Z,98561.56
2023-05-16T13:11:45.940Z,98559.16
2023-05-16T13:14:12.899Z,98560.69
2023-05-16T13:16:39.745Z,98564.09
2023-05-16T13:19:06.758Z,98555.25
2023-05-16T13:21:33.536Z,98559.66
2023-05-16T13:24:00.320Z,98562.50
2023-05-16T13:26:27.337Z,98573.16
2023-05-16T13:28:55.062Z,98567.09
2023-05-16T13:31:25.353Z,98576.53
2023-05-16T13:33:52.186Z,98572.69
2023-05-16T13:36:18.877Z,98565.72
2023-05-16T13:38:45.630Z,98568.63
2023-05-16T13:41:12.316Z,98564.09
2023-05-16T13:43:38.987Z,98571.88
2023-05-16T13:46:06.081Z,98567.47
2023-05-16T13:48:32.865Z,98560.19
2023-05-16T13:50:59.717Z,98563.22
2023-05-16T13:53:26.899Z,98571.13
2023-05-16T13:55:54.392Z,98572.91
2023-05-16T13:58:22.241Z,98564.41
2023-05-16T14:00:49.149Z,98578.75
2023-05-16T14:03:16.207Z,98580.56
2023-05-16T14:05:42.999Z,98581.44
2023-05-16T14:08:09.763Z,98568.75
2023-05-16T14:10:36.432Z,98584.41
2023-05-16T14:13:03.204Z,98585.88
2023-05-16T14:15:30.184Z,98577.53
2023-05-16T14:17:57.116Z,98570.16
2023-05-16T14:20:23.822Z,98580.72
2023-05-16T14:22:50.570Z,98584.28
2023-05-16T14:25:17.473Z,98577.28
2023-05-16T14:27:44.309Z,98582.59
2023-05-16T14:30:11.470Z,98582.53
2023-05-16T14:32:38.188Z,98585.63
2023-05-16T14:35:05.467Z,98586.28
2023-05-16T14:37:32.443Z,98594.38
2023-05-16T14:40:00.813Z,98595.72
2023-05-16T14:42:27.568Z,98586.66
2023-05-16T14:44:54.216Z,98586.59
2023-05-16T14:47:20.901Z,98599.31
2023-05-16T14:49:47.561Z,98601.34
2023-05-16T14:52:14.353Z,98601.72
2023-05-16T14:54:41.086Z,98610.00
2023-05-16T14:57:08.119Z,98606.38
2023-05-16T14:59:34.807Z,98608.06
2023-05-16T15:02:01.706Z,98609.47
2023-05-16T15:04:28.921Z,98592.63
2023-05-16T15:06:55.947Z,98604.47
2023-05-16T15:09:22.760Z,98609.13
2023-05-16T15:11:49.474Z,98606.06
2023-05-16T15:14:16.277Z,98614.16
2023-05-16T15:16:43.313Z,98622.06
2023-05-16T15:19:10.218Z,98617.34
2023-05-16T15:21:37.085Z,98620.22
2023-05-16T15:24:04.077Z,98628.50
2023-05-16T15:26:31.030Z,98628.81
2023-05-16T15:28:57.813Z,98620.47
2023-05-16T15:31:24.597Z,98620.06
2023-05-16T15:33:51.341Z,98626.88
2023-05-16T15:36:18.105Z,98628.22
2023-05-16T15:38:45.718Z,98623.72
2023-05-16T15:41:31.429Z,98608.44
2023-05-16T15:44:00.404Z,98613.63
2023-05-16T15:46:27.386Z,98624.00
2023-05-16T15:48:54.167Z,98611.91
2023-05-16T15:51:21.114Z,98620.72
2023-05-16T15:53:47.965Z,98627.53
2023-05-16T15:56:14.698Z,98625.34
2023-05-16T15:58:41.489Z,98628.91
2023-05-16T16:01:08.135Z,98630.75
2023-05-16T16:03:34.909Z,98630.13
2023-05-16T16:06:01.803Z,98635.41
2023-05-16T16:08:28.617Z,98635.44
2023-05-16T16:10:55.500Z,98638.63
2023-05-16T16:13:24.112Z,98644.56
2023-05-16T16:15:50.979Z,98639.88
2023-05-16T16:18:17.744Z,98632.72
2023-05-16T16:20:44.494Z,98621.91
2023-05-16T16:23:11.396Z,98614.91
2023-05-16T16:25:38.183Z,98629.78
2023-05-16T16:28:04.985Z,98630.59
2023-05-16T16:30:34.518Z,98634.94
2023-05-16T16:33:01.368Z,98639.44
2023-05-16T16:35:28.654Z,98639.66
2023-05-16T16:40:29.110Z,98649.91
2023-05-16T16:42:55.797Z,98645.47
2023-05-16T16:45:22.716Z,98651.75
2023-05-16T16:47:49.572Z,98647.56
2023-05-16T16:50:16.337Z,98646.56
2023-05-16T16:52:43.303Z,98658.22
2023-05-16T16:55:10.059Z,98659.38
2023-05-16T16:57:36.949Z,98655.84
2023-05-16T17:00:04.180Z,98651.16
2023-05-16T17:02:31.962Z,98650.56
2023-05-16T17:04:58.687Z,98662.75
2023-05-16T17:07:25.367Z,98663.94
2023-05-16T17:09:53.881Z,98664.53
2023-05-16T17:12:21.996Z,98659.53
2023-05-16T17:14:50.301Z,98657.50
2023-05-16T17:17:18.455Z,98651.88
2023-05-16T17:19:46.862Z,98658.53
2023-05-16T17:22:13.896Z,98660.47
2023-05-16T17:24:40.822Z,98654.72
2023-05-16T17:27:07.545Z,98669.16
2023-05-16T17:29:34.270Z,98667.75
2023-05-16T17:32:01.126Z,98664.91
2023-05-16T17:34:27.888Z,98665.78
2023-05-16T17:36:54.540Z,98661.88
2023-05-16T17:39:21.343Z,98671.06
2023-05-16T17:41:47.995Z,98674.91
2023-05-16T17:44:14.647Z,98676.69
2023-05-16T17:46:42.510Z,98680.13
2023-05-16T17:49:09.931Z,98683.81
2023-05-16T17:51:47.883Z,98687.63
2023-05-16T17:54:16.068Z,98685.88
2023-05-16T17:56:42.890Z,98696.28
2023-05-16T17:59:10.714Z,98699.53
2023-05-16T18:01:38.249Z,98690.06
2023-05-16T18:04:06.798Z,98700.88
2023-05-16T18:06:37.824Z,98701.72
2023-05-16T18:09:09.921Z,98700.91
2023-05-16T18:11:39.437Z,98707.59
2023-05-16T18:14:09.166Z,98706.69
2023-05-16T18:16:36.225Z,98707.78
2023-05-16T18:19:04.873Z,98707.19
2023-05-16T18:21:32.168Z,98706.50
2023-05-16T18:23:59.534Z,98713.63
2023-05-16T18:26:28.501Z,98717.34
2023-05-16T18:28:55.556Z,98727.78
2023-05-16T18:31:22.593Z,98723.56
2023-05-16T18:33:49.865Z,98729.75
2023-05-16T18:36:16.637Z,98730.16
2023-05-16T18:38:43.473Z,98726.72
2023-05-16T18:41:10.170Z,98726.97
2023-05-16T18:43:36.916Z,98734.38
2023-05-16T18:46:04.322Z,98740.56
2023-05-16T18:48:31.915Z,98739.81
2023-05-16T18:50:59.623Z,98750.69
2023-05-16T18:53:26.337Z,98750.31
2023-05-16T18:55:53.111Z,98762.09
2023-05-16T18:58:20.222Z,98755.22
2023-05-16T19:00:47.175Z,98773.94
2023-05-16T19:03:13.952Z,98768.09
2023-05-16T19:05:40.788Z,98777.06
2023-05-16T19:08:07.627Z,98779.84
2023-05-16T19:10:37.990Z,98781.59
2023-05-16T19:13:08.757Z,98784.47
2023-05-16T19:15:36.449Z,98794.69
2023-05-16T19:18:04.776Z,98797.44
2023-05-16T19:20:32.959Z,98808.94
2023-05-16T19:22:59.692Z,98814.31
2023-05-16T19:25:26.976Z,98815.50
2023-05-16T19:27:54.101Z,98817.50
2023-05-16T19:30:22.952Z,98821.81
2023-05-16T19:32:51.196Z,98832.59
2023-05-16T19:35:18.862Z,98835.09
2023-05-16T19:37:46.306Z,98844.78
2023-05-16T19:40:15.393Z,98844.91
2023-05-16T19:42:43.829Z,98857.31
2023-05-16T19:45:10.912Z,98860.09
2023-05-16T19:47:37.654Z,98864.75
2023-05-16T19:50:05.038Z,98870.06
2023-05-16T19:52:31.828Z,98875.47
2023-05-16T19:55:01.675Z,98877.50
2023-05-16T19:57:28.557Z,98879.34
2023-05-16T19:59:55.254Z,98876.41
2023-05-16T20:02:24.326Z,98881.63
2023-05-16T20:04:51.657Z,98875.44
2023-05-16T20:07:18.548Z,98884.28
2023-05-16T20:09:45.360Z,98892.06
2023-05-16T20:12:12.760Z,98887.63
2023-05-16T20:14:39.624Z,98895.75
2023-05-16T20:17:06.823Z,98892.53
2023-05-16T20:19:34.265Z,98899.75
2023-05-16T20:22:01.408Z,98907.78
2023-05-16T20:24:28.110Z,98907.00
2023-05-16T20:26:54.742Z,98914.94
2023-05-16T20:29:21.477Z,98915.13
2023-05-16T20:31:48.181Z,98916.19
2023-05-16T20:34:14.930Z,98915.28
2023-05-16T20:36:41.716Z,98919.06
2023-05-16T20:39:09.020Z,98922.63
2023-05-16T20:41:35.799Z,98928.81
2023-05-16T20:44:02.498Z,98929.84
2023-05-16T20:46:29.273Z,98930.84
2023-05-16T20:48:56.055Z,98936.19
2023-05-16T20:51:22.772Z,98928.31
2023-05-16T20:53:49.679Z,98941.69
2023-05-16T20:56:16.501Z,98931.09
2023-05-16T20:58:43.763Z,98934.63
2023-05-16T21:01:10.566Z,98936.47
2023-05-16T21:03:37.464Z,98933.84
2023-05-16T21:06:04.482Z,98940.13
2023-05-16T21:08:31.747Z,98937.59
2023-05-16T21:10:58.652Z,98940.34
2023-05-16T21:13:25.797Z,98938.47
2023-05-16T21:15:52.645Z,98946.47
2023-05-16T21:18:19.501Z,98941.25
2023-05-16T21:20:46.292Z,98945.59
2023-05-16T21:23:13.019Z,98949.19
2023-05-16T21:25:41.133Z,98950.13
2023-05-16T21:28:08.076Z,98952.78
2023-05-16T21:30:34.819Z,98957.53
2023-05-16T21:33:01.873Z,98961.88
2023-05-16T21:35:28.945Z,98958.50
2023-05-16T21:37:55.992Z,98959.28
2023-05-16T21:40:24.979Z,98962.81
2023-05-16T21:42:52.705Z,98963.78
2023-05-16T21:45:19.456Z,98963.81
2023-05-16T21:47:46.914Z,98974.44
2023-05-16T21:50:13.882Z,98965.63
2023-05-16T21:52:41.040Z,98976.25
2023-05-16T21:55:08.654Z,98971.03
2023-05-16T21:57:35.493Z,98976.34
2023-05-16T22:00:06.516Z,98975.53
2023-05-16T22:02:35.173Z,98979.09
2023-05-16T22:05:02.559Z,98977.50
2023-05-16T22:07:29.679Z,98981.06
2023-05-16T22:09:56.893Z,98974.00
2023-05-16T22:12:24.059Z,98974.09
2023-05-16T22:14:51.092Z,98984.72
2023-05-16T22:17:19.548Z,98983.00
2023-05-16T22:19:46.718Z,98981.25
2023-05-16T22:22:13.547Z,98983.94
2023-05-16T22:24:40.389Z,98986.59
2023-05-16T22:27:07.110Z,98977.78
2023-05-16T22:29:38.070Z,98983.03
2023-05-16T22:32:09.025Z,98977.78
2023-05-16T22:34:41.725Z,98983.06
2023-05-16T22:37:09.673Z,98985.66
2023-05-16T22:39:36.566Z,98986.59
2023-05-16T22:42:03.640Z,98987.53
2023-05-16T22:44:30.418Z,98984.91
2023-05-16T22:46:57.084Z,98987.59
2023-05-16T22:49:23.819Z,98981.44
2023-05-16T22:51:50.606Z,98984.16
2023-05-16T22:54:17.441Z,98982.41
2023-05-16T22:56:44.168Z,98984.16
2023-05-16T22:59:11.020Z,98986.84
2023-05-16T23:01:37.834Z,98986.84
2023-05-16T23:04:04.904Z,98986.91
2023-05-16T23:06:32.504Z,98988.63
2023-05-16T23:09:04.213Z,98989.53
2023-05-16T23:11:31.942Z,98983.34
2023-05-16T23:13:58.662Z,98979.88
2023-05-16T23:16:25.427Z,98986.09
2023-05-16T23:18:52.231Z,98984.34
2023-05-16T23:21:18.999Z,98985.22
2023-05-16T23:23:45.638Z,98987.97
2023-05-16T23:26:12.379Z,98991.50
2023-05-16T23:28:39.347Z,98989.81
2023-05-16T23:31:06.356Z,98991.63
2023-05-16T23:33:33.071Z,98986.41
2023-05-16T23:35:59.787Z,98981.97
2023-05-16T23:38:27.367Z,98987.28
2023-05-16T23:40:54.079Z,98987.31
2023-05-16T23:43:21.231Z,98983.88
2023-05-16T23:45:47.903Z,98985.66
2023-05-16T23:48:14.748Z,98991.81
2023-05-16T23:50:41.588Z,98985.69
2023-05-16T23:53:08.329Z,98996.28
2023-05-16T23:55:35.016Z,98990.09
2023-05-16T23:58:01.770Z,98994.59
